Time;durP1;ratioP1;P1;durP2;ratioP2;P2;SDS_P1;SDS_P2;PMS_P1;PMS_P2;Temp;Humidity;BMP_temperature;BMP_pressure;BME280_temperature;BME280_humidity;BME280_pressure;Samples;Min_cycle;Max_cycle;Signal;HPM_P1;HPM_P2
2021/01/31 00:02:04;;;;;;;14.57;7.93;;;-1.70;97.10;;;;;;5104061;27;20031;-73
2021/01/31 00:04:30;;;;;;;14.43;8.55;;;-1.70;97.10;;;;;;5100420;27;20027;-73
2021/01/31 00:06:56;;;;;;;16.15;8.18;;;-1.80;97.10;;;;;;5105494;27;20023;-73
2021/01/31 00:09:22;;;;;;;13.90;8.05;;;-1.70;97.20;;;;;;5086459;27;20437;-73
2021/01/31 00:11:47;;;;;;;16.08;8.57;;;-1.70;97.00;;;;;;5106145;27;20050;-74
2021/01/31 00:14:13;;;;;;;12.27;6.85;;;-1.70;97.20;;;;;;5105455;27;20031;-73
2021/01/31 00:16:38;;;;;;;16.20;8.00;;;-1.70;97.20;;;;;;5094821;27;20490;-73
2021/01/31 00:19:04;;;;;;;17.27;9.70;;;-1.70;96.90;;;;;;5103685;27;20023;-73
2021/01/31 00:21:31;;;;;;;12.18;7.72;;;-1.70;97.00;;;;;;5079501;27;20479;-74
2021/01/31 00:23:56;;;;;;;14.98;8.35;;;-1.80;97.00;;;;;;5103933;27;20023;-73
2021/01/31 00:26:22;;;;;;;14.13;8.95;;;-1.80;97.10;;;;;;5122019;27;20512;-73
2021/01/31 00:28:47;;;;;;;14.50;8.35;;;-1.90;97.20;;;;;;5104895;27;20027;-74
2021/01/31 00:31:13;;;;;;;14.05;7.85;;;-1.90;97.10;;;;;;5103879;27;20065;-73
2021/01/31 00:33:38;;;;;;;13.52;7.82;;;-1.90;97.50;;;;;;5080252;27;20119;-75
2021/01/31 00:36:04;;;;;;;16.15;8.25;;;-1.90;97.10;;;;;;5089055;27;20033;-74
2021/01/31 00:38:29;;;;;;;11.57;7.75;;;-1.90;97.10;;;;;;5071862;28;20023;-73
2021/01/31 00:40:55;;;;;;;14.18;8.77;;;-1.90;97.00;;;;;;5103530;27;20501;-74
2021/01/31 00:43:20;;;;;;;15.68;8.13;;;-1.90;96.80;;;;;;5099926;27;20149;-74
2021/01/31 00:45:46;;;;;;;12.73;7.25;;;-2.00;96.80;;;;;;5101011;27;20393;-74
2021/01/31 00:48:12;;;;;;;15.00;8.20;;;-2.00;97.00;;;;;;5092949;28;20019;-74
2021/01/31 00:50:38;;;;;;;13.45;7.57;;;-2.10;97.00;;;;;;5092686;28;20084;-74
2021/01/31 00:53:04;;;;;;;15.15;8.77;;;-2.10;97.00;;;;;;5103969;27;20027;-74
2021/01/31 00:55:30;;;;;;;13.45;8.40;;;-2.10;97.10;;;;;;5092870;28;20119;-73
2021/01/31 00:57:55;;;;;;;14.02;8.50;;;-2.10;97.00;;;;;;5104910;28;20118;-73
2021/01/31 01:00:28;;;;;;;16.80;10.10;;;-2.10;97.10;;;;;;5101703;28;20122;-74
2021/01/31 01:02:53;;;;;;;16.05;8.15;;;-2.20;97.00;;;;;;5065474;28;20561;-73
2021/01/31 01:05:23;;;;;;;12.20;6.88;;;-2.20;97.00;;;;;;5048341;28;20085;-73
2021/01/31 01:07:49;;;;;;;13.77;7.30;;;-2.20;96.90;;;;;;5008968;28;20516;-73
2021/01/31 01:10:16;;;;;;;13.57;7.90;;;-2.20;97.20;;;;;;5094223;27;20109;-74
2021/01/31 01:12:42;;;;;;;12.85;7.40;;;-2.20;97.00;;;;;;5097877;27;20532;-74
2021/01/31 01:15:08;;;;;;;13.43;7.80;;;-2.20;97.00;;;;;;5090966;27;20031;-73
2021/01/31 01:17:34;;;;;;;12.88;7.13;;;-2.20;96.90;;;;;;5086514;27;20468;-74
2021/01/31 01:20:00;;;;;;;15.57;8.13;;;-2.30;97.10;;;;;;5093266;27;20046;-73
2021/01/31 01:22:25;;;;;;;15.15;7.57;;;-2.30;97.00;;;;;;5087370;27;20059;-73
2021/01/31 01:24:52;;;;;;;11.88;6.28;;;-2.40;97.00;;;;;;5109303;27;20027;-74
2021/01/31 01:27:19;;;;;;;12.45;7.50;;;-2.30;97.20;;;;;;5105888;27;20436;-74
2021/01/31 01:29:45;;;;;;;15.93;8.15;;;-2.30;96.80;;;;;;5098263;27;20061;-73
2021/01/31 01:32:10;;;;;;;16.08;7.72;;;-2.40;96.90;;;;;;5089808;27;20490;-74
2021/01/31 01:34:36;;;;;;;14.57;8.13;;;-2.40;96.90;;;;;;5102060;27;20031;-74
2021/01/31 01:37:01;;;;;;;11.75;6.40;;;-2.40;97.00;;;;;;5108427;27;20035;-74
2021/01/31 01:39:28;;;;;;;14.88;7.50;;;-2.40;97.10;;;;;;5109059;27;20467;-74
2021/01/31 01:41:59;;;;;;;15.25;8.80;;;-2.40;97.00;;;;;;5092845;27;20038;-74
2021/01/31 01:44:24;;;;;;;12.00;7.13;;;-2.40;96.80;;;;;;5106895;27;20031;-74
2021/01/31 01:46:50;;;;;;;13.25;7.30;;;-2.40;97.10;;;;;;5087290;27;20042;-74
2021/01/31 01:49:30;;;;;;;14.93;7.60;;;-2.50;96.80;;;;;;5106493;27;20031;-74
2021/01/31 01:52:04;;;;;;;14.93;7.50;;;-2.50;96.80;;;;;;5098121;27;20479;-74
2021/01/31 01:54:32;;;;;;;15.50;7.68;;;-2.50;97.00;;;;;;5080407;27;20279;-73
2021/01/31 01:57:04;;;;;;;17.33;8.30;;;-2.60;96.70;;;;;;5107358;27;20039;-73
2021/01/31 01:59:30;;;;;;;14.02;7.60;;;-2.70;96.60;;;;;;5094762;27;20447;-74
2021/01/31 02:02:21;;;;;;;13.45;7.55;;;-2.70;97.10;;;;;;5091070;27;20114;-74
2021/01/31 02:04:47;;;;;;;13.07;7.32;;;-2.60;96.80;;;;;;5108667;27;20074;-74
2021/01/31 02:07:13;;;;;;;14.85;7.35;;;-2.70;96.70;;;;;;5107322;27;20034;-73
2021/01/31 02:09:39;;;;;;;13.45;7.22;;;-2.70;96.80;;;;;;5081312;27;20030;-73
2021/01/31 02:12:05;;;;;;;15.48;7.68;;;-2.80;96.60;;;;;;5107306;27;20034;-74
2021/01/31 02:14:32;;;;;;;13.98;7.97;;;-2.80;96.80;;;;;;5091252;27;20028;-74
2021/01/31 02:17:07;;;;;;;12.40;7.43;;;-2.90;96.50;;;;;;5107764;27;20517;-74
2021/01/31 02:19:51;;;;;;;15.32;7.13;;;-2.90;96.60;;;;;;5105770;27;20554;-74
2021/01/31 02:22:41;;;;;;;13.90;7.63;;;-2.90;96.80;;;;;;5107315;27;20035;-74
2021/01/31 02:25:21;;;;;;;14.85;7.97;;;-3.00;96.60;;;;;;5109111;27;20053;-74
2021/01/31 02:28:22;;;;;;;16.23;7.22;;;-3.00;96.50;;;;;;5125693;27;20053;-74
2021/01/31 02:30:54;;;;;;;11.38;6.68;;;-3.10;96.70;;;;;;5094101;27;20351;-75
2021/01/31 02:33:46;;;;;;;12.13;6.65;;;-3.10;96.80;;;;;;5090202;27;20111;-74
2021/01/31 02:36:26;;;;;;;11.68;7.10;;;-3.10;96.50;;;;;;5105467;27;20035;-74
2021/01/31 02:39:09;;;;;;;14.68;8.25;;;-3.20;96.60;;;;;;5111264;27;20106;-74
2021/01/31 02:41:45;;;;;;;13.75;7.55;;;-3.20;96.30;;;;;;5107363;27;20039;-74
2021/01/31 02:44:11;;;;;;;14.68;7.95;;;-3.30;96.40;;;;;;5106049;27;20072;-74
2021/01/31 02:46:58;;;;;;;12.93;7.10;;;-3.30;96.70;;;;;;5090423;27;20028;-73
2021/01/31 02:49:39;;;;;;;13.50;7.45;;;-3.20;96.80;;;;;;5092342;27;20436;-74
2021/01/31 02:52:13;;;;;;;12.85;6.97;;;-3.30;96.30;;;;;;5103869;27;20114;-74
2021/01/31 02:54:58;;;;;;;14.30;7.60;;;-3.30;96.80;;;;;;5085670;27;20039;-74
2021/01/31 02:57:36;;;;;;;12.95;6.65;;;-3.30;96.40;;;;;;5101859;27;20058;-74
2021/01/31 03:00:12;;;;;;;13.45;6.82;;;-3.40;96.80;;;;;;5106891;27;20149;-74
2021/01/31 03:02:45;;;;;;;;;;;-3.40;96.40;;;;;;5107511;27;20039;-74
2021/01/31 03:05:14;;;;;;;17.02;7.95;;;-3.50;96.30;;;;;;5088459;27;19912;-74
2021/01/31 03:07:44;;;;;;;16.45;7.38;;;-3.40;96.60;;;;;;5095811;27;20032;-74
2021/01/31 03:10:20;;;;;;;14.18;7.82;;;-3.40;96.80;;;;;;5104211;27;20034;-74
2021/01/31 03:12:50;;;;;;;13.27;6.90;;;-3.50;96.60;;;;;;5086894;27;20111;-74
2021/01/31 03:15:19;;;;;;;13.95;7.70;;;-3.40;97.10;;;;;;5090552;27;20073;-74
2021/01/31 03:18:20;;;;;;;13.93;7.28;;;-3.60;96.30;;;;;;5096595;27;20043;-75
2021/01/31 03:20:58;;;;;;;13.57;7.88;;;-3.60;96.30;;;;;;5082493;27;20446;-74
2021/01/31 03:23:28;;;;;;;13.70;6.75;;;-3.60;96.60;;;;;;5098739;27;20118;-75
2021/01/31 03:26:02;;;;;;;13.68;7.88;;;-3.60;96.50;;;;;;5106344;27;20034;-75
2021/01/31 03:28:28;;;;;;;14.20;6.95;;;-3.80;95.90;;;;;;5103981;27;20041;-74
2021/01/31 03:30:54;;;;;;;17.73;8.30;;;-3.80;96.40;;;;;;5104658;27;20364;-74
2021/01/31 03:33:25;;;;;;;17.40;8.60;;;-3.70;96.50;;;;;;5085555;27;20032;-74
2021/01/31 03:35:51;;;;;;;11.57;6.03;;;-3.80;96.30;;;;;;5101096;27;20020;-75
2021/01/31 03:38:18;;;;;;;13.35;7.47;;;-3.80;96.60;;;;;;5086043;27;20028;-74
2021/01/31 03:40:46;;;;;;;16.48;7.40;;;-3.70;96.30;;;;;;5089362;27;20718;-74
2021/01/31 03:43:12;;;;;;;15.65;8.35;;;-3.80;96.40;;;;;;5081414;27;20084;-75
2021/01/31 03:46:02;;;;;;;12.45;6.60;;;-3.80;96.30;;;;;;5096543;27;20027;-74
2021/01/31 03:48:30;;;;;;;13.77;7.05;;;-3.80;96.60;;;;;;5083272;27;20035;-74
2021/01/31 03:50:56;;;;;;;16.60;8.07;;;-3.90;96.10;;;;;;5105050;27;20027;-74
2021/01/31 03:53:21;;;;;;;16.23;8.48;;;-3.90;96.20;;;;;;5083203;27;20088;-74
2021/01/31 03:55:47;;;;;;;17.77;8.65;;;-3.80;96.30;;;;;;5098825;27;20421;-74
2021/01/31 03:58:14;;;;;;;16.55;7.78;;;-3.90;96.10;;;;;;5092009;27;20027;-75
2021/01/31 04:00:53;;;;;;;18.17;7.78;;;-3.80;97.10;;;;;;5096218;27;20063;-74
2021/01/31 04:03:21;;;;;;;14.60;7.50;;;-3.80;96.80;;;;;;5106533;27;20048;-74
2021/01/31 04:06:04;;;;;;;14.95;8.80;;;-3.80;96.40;;;;;;5090128;27;20102;-74
2021/01/31 04:08:30;;;;;;;15.05;8.10;;;-3.90;96.20;;;;;;5101901;27;20383;-75
2021/01/31 04:10:55;;;;;;;16.55;9.13;;;-3.90;96.60;;;;;;5102969;27;20038;-74
2021/01/31 04:13:21;;;;;;;16.45;9.35;;;-4.00;96.20;;;;;;5119634;27;20023;-74
2021/01/31 04:15:53;;;;;;;15.65;6.90;;;-4.00;96.20;;;;;;5097981;27;20031;-74
2021/01/31 04:18:19;;;;;;;13.57;8.07;;;-4.10;96.20;;;;;;5075789;27;20053;-74
2021/01/31 04:20:45;;;;;;;17.42;8.88;;;-4.10;96.20;;;;;;5098024;27;20515;-74
2021/01/31 04:23:10;;;;;;;18.30;7.95;;;-4.10;96.70;;;;;;5104574;27;20077;-74
2021/01/31 04:25:36;;;;;;;15.73;8.70;;;-3.90;97.00;;;;;;5085732;27;20050;-74
2021/01/31 04:28:12;;;;;;;16.35;8.23;;;-3.90;96.80;;;;;;5085236;27;20064;-74
2021/01/31 04:30:41;;;;;;;15.70;7.68;;;-4.10;95.90;;;;;;5090791;27;20429;-74
2021/01/31 04:33:07;;;;;;;13.15;7.50;;;-4.20;95.90;;;;;;5085396;27;20061;-74
2021/01/31 04:35:32;;;;;;;14.32;7.22;;;-4.10;97.00;;;;;;5088378;28;20537;-74
2021/01/31 04:37:58;;;;;;;14.80;8.10;;;-4.20;96.30;;;;;;5105182;27;20126;-75
2021/01/31 04:40:24;;;;;;;13.55;7.50;;;-4.30;96.20;;;;;;5071992;27;20046;-74
2021/01/31 04:42:49;;;;;;;15.60;7.60;;;-4.40;96.10;;;;;;5103610;27;20035;-75
2021/01/31 04:45:15;;;;;;;17.80;8.18;;;-4.30;96.30;;;;;;5104743;27;20068;-75
2021/01/31 04:47:56;;;;;;;18.25;8.45;;;-4.30;96.60;;;;;;5096100;27;20085;-75
2021/01/31 04:50:35;;;;;;;15.32;7.70;;;-4.20;96.80;;;;;;5125037;27;20038;-75
2021/01/31 04:53:18;;;;;;;15.07;7.78;;;-4.30;96.20;;;;;;5086322;28;20382;-75
2021/01/31 04:55:51;;;;;;;16.50;8.82;;;-4.30;96.30;;;;;;5087047;27;20455;-74
2021/01/31 04:58:22;;;;;;;17.65;8.15;;;-4.40;96.40;;;;;;5104569;28;20478;-74
2021/01/31 05:00:54;;;;;;;16.63;8.07;;;-4.30;96.50;;;;;;5087502;28;20027;-74
2021/01/31 05:03:21;;;;;;;18.13;8.10;;;-4.40;96.00;;;;;;5103529;28;20465;-75
2021/01/31 05:05:52;;;;;;;19.48;9.18;;;-4.20;97.10;;;;;;5088411;28;20020;-74
2021/01/31 05:08:24;;;;;;;15.00;7.47;;;-4.10;97.00;;;;;;5105670;27;20039;-75
2021/01/31 05:10:51;;;;;;;15.65;7.45;;;-4.10;97.00;;;;;;4031870;28;10000309;-75
2021/01/31 05:13:28;;;;;;;14.30;7.80;;;-4.20;96.30;;;;;;5100158;28;20027;-75
2021/01/31 05:16:10;;;;;;;17.70;7.63;;;-4.30;96.50;;;;;;5097704;28;20023;-74
2021/01/31 05:18:49;;;;;;;16.67;8.13;;;-4.30;96.80;;;;;;5086705;28;20115;-75
2021/01/31 05:21:18;;;;;;;14.93;7.22;;;-4.30;96.30;;;;;;4748885;28;9999657;-75
2021/01/31 05:23:48;;;;;;;19.08;8.10;;;-4.40;96.60;;;;;;5091740;28;20070;-75
2021/01/31 05:26:13;;;;;;;13.25;7.80;;;-4.40;96.60;;;;;;5102397;28;20041;-74
2021/01/31 05:28:41;;;;;;;15.98;7.88;;;-4.50;96.20;;;;;;5093924;28;20032;-74
2021/01/31 05:31:10;;;;;;;13.85;7.25;;;-4.60;95.80;;;;;;5104319;28;20023;-75
2021/01/31 05:33:56;;;;;;;16.10;7.88;;;-4.70;96.10;;;;;;5091956;28;20169;-75
2021/01/31 05:36:23;;;;;;;18.80;8.02;;;-4.70;96.30;;;;;;5100290;27;20036;-74
2021/01/31 05:38:49;;;;;;;16.35;7.57;;;-4.80;96.30;;;;;;5106636;28;20026;-75
2021/01/31 05:41:24;;;;;;;15.50;8.50;;;-4.70;96.30;;;;;;5094108;28;20055;-74
2021/01/31 05:44:00;;;;;;;19.42;8.88;;;-4.70;96.10;;;;;;5092900;28;20482;-75
2021/01/31 05:46:37;;;;;;;17.75;8.07;;;-4.80;95.70;;;;;;5103603;28;20042;-75
2021/01/31 05:49:03;;;;;;;16.35;8.88;;;-4.70;96.40;;;;;;5082618;28;20032;-75
2021/01/31 05:51:32;;;;;;;16.33;8.07;;;-4.80;95.90;;;;;;5089764;27;20112;-78
2021/01/31 05:53:57;;;;;;;18.35;8.05;;;-4.80;95.80;;;;;;5085035;28;20024;-76
2021/01/31 05:56:24;;;;;;;19.60;8.85;;;-4.90;95.90;;;;;;5084860;27;20039;-77
2021/01/31 05:59:06;;;;;;;16.65;9.07;;;-4.80;96.20;;;;;;5102034;27;20050;-76
2021/01/31 06:01:31;;;;;;;14.95;7.32;;;-4.70;96.30;;;;;;5091331;27;20036;-77
2021/01/31 06:04:10;;;;;;;18.13;9.10;;;-4.70;95.80;;;;;;5100423;27;20047;-77
2021/01/31 06:06:35;;;;;;;17.45;8.50;;;-4.80;96.00;;;;;;5089831;27;20092;-77
2021/01/31 06:09:01;;;;;;;17.52;8.65;;;-4.80;95.90;;;;;;5086656;27;20039;-77
2021/01/31 06:11:28;;;;;;;19.95;9.07;;;-4.80;96.00;;;;;;5089696;27;20026;-77
2021/01/31 06:14:01;;;;;;;16.92;7.88;;;-4.80;96.50;;;;;;5071825;27;20467;-75
2021/01/31 06:16:27;;;;;;;20.48;9.18;;;-4.80;95.70;;;;;;5077000;27;20114;-75
2021/01/31 06:19:22;;;;;;;16.92;8.38;;;-4.80;96.20;;;;;;5092134;27;20536;-75
2021/01/31 06:21:48;;;;;;;15.13;7.43;;;-4.70;96.60;;;;;;5120809;27;20559;-75
2021/01/31 06:24:38;;;;;;;17.50;9.13;;;-4.80;96.20;;;;;;5107349;27;20027;-75
2021/01/31 06:27:04;;;;;;;20.73;9.43;;;-4.80;95.80;;;;;;5095903;27;20028;-75
2021/01/31 06:29:38;;;;;;;20.25;8.93;;;-5.00;96.00;;;;;;5107779;27;20133;-75
2021/01/31 06:32:18;;;;;;;19.10;9.55;;;-4.90;96.10;;;;;;5087410;27;20031;-75
2021/01/31 06:34:49;;;;;;;17.85;8.88;;;-4.90;96.00;;;;;;5092535;27;20035;-75
2021/01/31 06:37:52;;;;;;;16.60;8.43;;;-5.00;95.90;;;;;;5089090;27;20399;-75
2021/01/31 06:40:28;;;;;;;18.35;9.32;;;-4.90;96.20;;;;;;5107496;27;20343;-75
2021/01/31 06:43:01;;;;;;;19.90;9.27;;;-4.90;96.10;;;;;;5084458;27;20522;-75
2021/01/31 06:45:57;;;;;;;20.42;10.35;;;-5.10;95.50;;;;;;5089576;27;20428;-75
2021/01/31 06:48:31;;;;;;;20.80;8.65;;;-5.00;96.20;;;;;;5107353;27;20107;-76
2021/01/31 06:51:15;;;;;;;18.65;8.55;;;-5.00;96.10;;;;;;5093726;27;20063;-75
2021/01/31 06:53:55;;;;;;;21.58;9.07;;;-5.00;96.20;;;;;;5085179;27;20046;-75
2021/01/31 06:56:42;;;;;;;17.45;7.97;;;-5.00;96.50;;;;;;5103135;27;20060;-75
2021/01/31 06:59:31;;;;;;;16.45;9.05;;;-4.80;97.00;;;;;;5107456;27;20391;-75
2021/01/31 07:02:14;;;;;;;23.05;9.05;;;-4.90;96.40;;;;;;5110266;27;20032;-77
2021/01/31 07:05:02;;;;;;;18.95;9.10;;;-4.80;96.50;;;;;;5125809;27;20379;-77
2021/01/31 07:07:37;;;;;;;16.63;8.48;;;-4.70;97.10;;;;;;5086199;27;20070;-75
2021/01/31 07:10:36;;;;;;;18.83;8.83;;;-4.70;97.00;;;;;;5109985;27;20506;-75
2021/01/31 07:13:26;;;;;;;18.00;8.10;;;-4.60;97.00;;;;;;5124809;27;20272;-75
2021/01/31 07:16:19;;;;;;;17.80;8.60;;;-4.70;96.60;;;;;;5104930;27;20031;-75
2021/01/31 07:19:00;;;;;;;19.83;8.23;;;-4.70;96.60;;;;;;5106042;27;20031;-75
2021/01/31 07:21:35;;;;;;;19.30;8.15;;;-4.80;96.50;;;;;;5092827;27;20122;-74
2021/01/31 07:24:02;;;;;;;20.73;9.13;;;-4.80;96.60;;;;;;5108528;27;20057;-75
2021/01/31 07:26:33;;;;;;;18.05;8.27;;;-4.90;96.60;;;;;;5105533;27;20027;-75
2021/01/31 07:29:00;;;;;;;22.08;9.73;;;-5.10;96.20;;;;;;5109000;27;20526;-76
2021/01/31 07:31:46;;;;;;;21.35;8.77;;;-5.10;96.60;;;;;;5090809;27;20424;-76
2021/01/31 07:34:19;;;;;;;17.75;8.48;;;-5.10;96.50;;;;;;5089739;27;20031;-75
2021/01/31 07:37:23;;;;;;;20.45;9.45;;;-5.10;96.60;;;;;;5089292;27;20034;-76
2021/01/31 07:40:13;;;;;;;19.55;8.00;;;-5.00;97.20;;;;;;4966907;28;20807;-76
2021/01/31 07:42:39;;;;;;;15.52;6.97;;;-4.90;97.20;;;;;;4936784;28;20429;-75
2021/01/31 07:45:12;;;;;;;19.85;8.75;;;-4.80;97.50;;;;;;5025911;27;20064;-75
2021/01/31 07:47:37;;;;;;;20.25;10.13;;;-4.70;97.40;;;;;;5105347;27;20043;-77
2021/01/31 07:50:03;;;;;;;21.60;9.18;;;-4.70;97.30;;;;;;5075581;27;20026;-75
2021/01/31 07:52:29;;;;;;;19.17;8.68;;;-4.70;97.20;;;;;;5122866;27;20035;-75
2021/01/31 07:55:18;;;;;;;20.65;8.75;;;-4.70;97.40;;;;;;5090456;27;20053;-75
2021/01/31 07:58:02;;;;;;;21.23;8.23;;;-4.60;97.70;;;;;;5093476;27;20031;-75
2021/01/31 08:00:41;;;;;;;17.65;7.55;;;-4.40;97.80;;;;;;5101400;27;20042;-75
2021/01/31 08:03:18;;;;;;;15.93;8.18;;;-4.40;97.80;;;;;;5092289;27;20023;-75
2021/01/31 08:06:00;;;;;;;19.20;8.85;;;-4.50;97.50;;;;;;5082467;27;20518;-76
2021/01/31 08:08:40;;;;;;;15.65;7.80;;;-4.30;98.00;;;;;;5101903;27;20043;-75
2021/01/31 08:11:15;;;;;;;18.25;8.38;;;-3.90;98.20;;;;;;5089838;27;20031;-75
2021/01/31 08:13:45;;;;;;;19.83;8.68;;;-3.70;98.10;;;;;;5088710;27;20036;-76
2021/01/31 08:16:47;;;;;;;25.27;10.48;;;-3.70;98.10;;;;;;5088818;27;20028;-75
2021/01/31 08:19:18;;;;;;;16.65;7.05;;;-3.70;98.00;;;;;;5122023;27;20023;-76
2021/01/31 08:22:04;;;;;;;13.68;6.72;;;-3.60;98.00;;;;;;5123646;27;20035;-76
2021/01/31 08:24:57;;;;;;;20.17;9.52;;;-3.30;98.60;;;;;;5122108;27;20567;-76
2021/01/31 08:27:41;;;;;;;17.20;7.93;;;-3.50;97.80;;;;;;5118214;27;20119;-75
2021/01/31 08:30:26;;;;;;;16.70;8.38;;;-3.30;98.20;;;;;;5124868;27;20019;-75
2021/01/31 08:33:06;;;;;;;16.20;8.38;;;-3.10;98.40;;;;;;5101237;27;20031;-76
2021/01/31 08:35:41;;;;;;;17.00;9.15;;;-3.20;98.10;;;;;;5103276;27;20382;-74
2021/01/31 08:38:16;;;;;;;20.00;9.40;;;-3.20;98.10;;;;;;5105203;27;20451;-75
2021/01/31 08:41:02;;;;;;;16.92;8.45;;;-3.00;98.50;;;;;;5122751;27;20600;-74
2021/01/31 08:43:40;;;;;;;22.52;10.50;;;-2.80;98.70;;;;;;5121729;27;20046;-75
2021/01/31 08:46:27;;;;;;;20.48;9.45;;;-2.90;98.30;;;;;;5106485;27;20031;-75
2021/01/31 08:48:54;;;;;;;19.85;9.73;;;-2.50;98.90;;;;;;5102257;27;20027;-74
2021/01/31 08:51:22;;;;;;;16.95;8.82;;;-2.40;98.40;;;;;;5099866;27;20038;-75
2021/01/31 08:54:06;;;;;;;20.25;9.52;;;-2.50;98.20;;;;;;5078604;28;20031;-75
2021/01/31 08:56:42;;;;;;;24.23;10.38;;;-2.40;98.60;;;;;;5123147;27;20043;-75
2021/01/31 08:59:14;;;;;;;19.40;8.70;;;-2.50;98.40;;;;;;5104445;27;20441;-74
2021/01/31 09:01:46;;;;;;;21.83;10.52;;;-2.40;98.70;;;;;;5099229;28;20039;-75
2021/01/31 09:04:16;;;;;;;16.73;8.02;;;-2.50;98.50;;;;;;5085344;28;20158;-75
2021/01/31 09:06:44;;;;;;;22.63;9.30;;;-2.30;98.70;;;;;;5080334;27;20162;-75
2021/01/31 09:09:22;;;;;;;18.08;9.20;;;-2.30;98.40;;;;;;5106803;28;20031;-75
2021/01/31 09:12:14;;;;;;;16.80;8.10;;;-2.10;98.40;;;;;;5109017;28;20031;-75
2021/01/31 09:14:41;;;;;;;16.80;8.77;;;-1.90;98.50;;;;;;5111568;28;20902;-75
2021/01/31 09:17:20;;;;;;;21.27;9.57;;;-1.80;98.30;;;;;;5109057;28;20379;-75
2021/01/31 09:19:45;;;;;;;15.45;7.47;;;-1.90;97.60;;;;;;5090646;28;20169;-75
2021/01/31 09:22:21;;;;;;;16.35;8.13;;;-1.70;98.10;;;;;;5094657;28;20569;-75
2021/01/31 09:24:51;;;;;;;17.88;8.63;;;-1.20;98.80;;;;;;5087308;28;20035;-75
2021/01/31 09:27:22;;;;;;;19.10;9.70;;;-0.90;99.10;;;;;;5108022;27;20027;-75
2021/01/31 09:29:48;;;;;;;18.90;9.43;;;-0.80;98.30;;;;;;5092169;28;20035;-75
2021/01/31 09:32:19;;;;;;;17.55;8.93;;;-1.00;97.90;;;;;;5109248;27;20057;-75
2021/01/31 09:34:44;;;;;;;22.95;10.48;;;-0.80;99.20;;;;;;5099227;27;20041;-74
2021/01/31 09:37:18;;;;;;;18.17;8.85;;;-1.20;96.80;;;;;;5095772;27;20039;-74
2021/01/31 09:39:43;;;;;;;14.05;7.80;;;-0.80;99.40;;;;;;5111455;27;20606;-75
2021/01/31 09:42:09;;;;;;;21.45;9.38;;;-0.20;99.70;;;;;;5081822;27;20043;-75
2021/01/31 09:44:35;;;;;;;16.38;8.68;;;-0.20;97.40;;;;;;5073535;27;20631;-74
2021/01/31 09:47:02;;;;;;;17.98;9.13;;;-0.20;97.20;;;;;;5111077;27;20525;-74
2021/01/31 09:49:28;;;;;;;16.02;8.93;;;-0.60;97.70;;;;;;5078689;27;20479;-74
2021/01/31 09:52:03;;;;;;;16.60;9.40;;;-0.30;98.60;;;;;;5107597;27;20114;-75
2021/01/31 09:54:30;;;;;;;16.00;8.35;;;-0.40;98.60;;;;;;5079359;27;20498;-75
2021/01/31 09:56:57;;;;;;;17.73;8.95;;;0.60;99.80;;;;;;5083679;27;20035;-75
2021/01/31 09:59:34;;;;;;;14.43;7.28;;;0.90;98.20;;;;;;5087450;27;20132;-75
2021/01/31 10:02:10;;;;;;;15.65;7.95;;;1.50;98.10;;;;;;5108446;27;20541;-75
2021/01/31 10:04:36;;;;;;;16.77;7.75;;;1.60;97.90;;;;;;5100199;27;20123;-75
2021/01/31 10:07:06;;;;;;;13.90;7.68;;;1.80;97.70;;;;;;5107753;27;20114;-75
2021/01/31 10:09:34;;;;;;;16.50;7.55;;;1.70;97.70;;;;;;5081514;27;20487;-75
2021/01/31 10:12:23;;;;;;;17.83;8.52;;;1.80;98.00;;;;;;5110312;27;20286;-75
2021/01/31 10:14:50;;;;;;;17.02;8.50;;;2.00;97.20;;;;;;5090751;27;20031;-75
2021/01/31 10:17:35;;;;;;;15.95;8.63;;;1.90;97.50;;;;;;5108152;27;20062;-75
2021/01/31 10:20:28;;;;;;;16.63;8.23;;;1.60;97.70;;;;;;5087904;27;20038;-74
2021/01/31 10:22:59;;;;;;;13.23;7.22;;;1.80;98.50;;;;;;5125720;27;20112;-74
2021/01/31 10:25:25;;;;;;;15.65;8.25;;;1.50;97.30;;;;;;5092542;27;20046;-75
2021/01/31 10:27:50;;;;;;;15.07;7.90;;;1.70;99.60;;;;;;5105391;27;20023;-75
2021/01/31 10:30:26;;;;;;;14.77;8.20;;;1.80;99.70;;;;;;5093161;27;20046;-75
2021/01/31 10:32:52;;;;;;;13.40;7.75;;;1.70;98.30;;;;;;5102942;27;20084;-75
2021/01/31 10:35:32;;;;;;;14.57;6.68;;;2.20;98.60;;;;;;5105424;27;20039;-75
2021/01/31 10:37:58;;;;;;;13.98;7.63;;;1.70;99.60;;;;;;5087541;27;20047;-75
2021/01/31 10:40:24;;;;;;;14.07;7.90;;;2.10;99.30;;;;;;5077772;27;20042;-75
2021/01/31 10:42:49;;;;;;;13.38;7.85;;;2.60;98.90;;;;;;5073972;27;20038;-75
2021/01/31 10:45:21;;;;;;;14.55;7.78;;;2.50;96.60;;;;;;5106573;27;20471;-75
2021/01/31 10:47:47;;;;;;;12.23;7.07;;;2.30;99.50;;;;;;5075252;27;20035;-74
2021/01/31 10:50:14;;;;;;;13.18;7.68;;;1.90;98.10;;;;;;5105509;27;20402;-74
2021/01/31 10:52:40;;;;;;;13.02;6.30;;;1.40;98.00;;;;;;5088014;27;20050;-74
2021/01/31 10:55:06;;;;;;;14.68;7.60;;;2.20;99.90;;;;;;5088260;27;20023;-75
2021/01/31 10:57:32;;;;;;;11.70;6.95;;;2.80;99.50;;;;;;5103503;27;20513;-74
2021/01/31 10:59:57;;;;;;;10.77;6.47;;;3.40;98.30;;;;;;5107901;27;20027;-74
2021/01/31 11:02:23;;;;;;;10.23;6.18;;;3.70;98.30;;;;;;5091297;27;20394;-75
2021/01/31 11:04:48;;;;;;;9.05;5.60;;;3.70;98.60;;;;;;5089518;27;20042;-74
2021/01/31 11:07:14;;;;;;;11.18;5.63;;;3.50;97.00;;;;;;5089627;27;20438;-74
2021/01/31 11:09:40;;;;;;;14.93;5.78;;;3.40;98.90;;;;;;5081595;27;20470;-74
2021/01/31 11:12:05;;;;;;;12.95;6.32;;;3.70;99.20;;;;;;5105959;27;20432;-74
2021/01/31 11:14:31;;;;;;;11.45;6.50;;;3.80;99.00;;;;;;5072093;27;20449;-73
2021/01/31 11:16:58;;;;;;;8.82;5.45;;;4.30;96.10;;;;;;5109952;27;20038;-74
2021/01/31 11:19:23;;;;;;;10.32;6.32;;;3.40;95.40;;;;;;5120540;27;20454;-74
2021/01/31 11:21:49;;;;;;;10.68;6.20;;;2.80;98.20;;;;;;5098226;27;20049;-74
2021/01/31 11:24:14;;;;;;;10.05;6.45;;;2.80;98.60;;;;;;5089829;27;20031;-75
2021/01/31 11:26:40;;;;;;;10.55;5.88;;;3.70;99.80;;;;;;5081275;27;20023;-74
2021/01/31 11:29:05;;;;;;;9.70;6.53;;;4.20;98.40;;;;;;5104329;27;20075;-73
2021/01/31 11:31:31;;;;;;;10.60;5.80;;;4.30;96.80;;;;;;5121047;27;20055;-73
2021/01/31 11:33:56;;;;;;;9.18;6.20;;;2.90;95.90;;;;;;5106077;27;20027;-73
2021/01/31 11:36:23;;;;;;;9.35;5.78;;;3.10;99.90;;;;;;5106120;27;20035;-73
2021/01/31 11:38:48;;;;;;;12.02;5.97;;;3.90;99.90;;;;;;5102726;27;20027;-73
2021/01/31 11:41:14;;;;;;;11.85;6.47;;;4.20;99.90;;;;;;5088689;27;20362;-73
2021/01/31 11:43:40;;;;;;;11.00;6.63;;;3.40;98.40;;;;;;5093360;27;20028;-73
2021/01/31 11:46:05;;;;;;;10.90;6.47;;;4.10;99.90;;;;;;5086365;27;20482;-74
2021/01/31 11:48:31;;;;;;;12.25;6.45;;;4.40;97.90;;;;;;5103527;27;20546;-74
2021/01/31 11:50:56;;;;;;;11.52;6.97;;;4.40;97.60;;;;;;5087320;27;20023;-73
2021/01/31 11:53:22;;;;;;;10.30;6.72;;;4.90;99.10;;;;;;5103970;27;20456;-74
2021/01/31 11:55:47;;;;;;;13.60;7.05;;;5.20;95.70;;;;;;5082570;27;20019;-74
2021/01/31 11:58:13;;;;;;;10.05;6.68;;;5.10;99.00;;;;;;5089922;27;20027;-74
2021/01/31 12:00:39;;;;;;;11.77;7.40;;;4.10;98.00;;;;;;5094686;27;20038;-73
2021/01/31 12:03:05;;;;;;;10.02;6.22;;;4.60;98.40;;;;;;5103944;27;20027;-75
2021/01/31 12:05:31;;;;;;;10.68;5.72;;;3.90;98.80;;;;;;5083525;27;20030;-74
2021/01/31 12:07:56;;;;;;;11.10;6.65;;;3.50;98.70;;;;;;5106914;27;20051;-74
2021/01/31 12:10:22;;;;;;;11.02;6.53;;;5.20;99.90;;;;;;5087518;27;20028;-74
2021/01/31 12:12:47;;;;;;;10.45;5.50;;;5.90;98.30;;;;;;5100649;27;20051;-74
2021/01/31 12:15:13;;;;;;;9.57;6.53;;;6.20;97.40;;;;;;5080893;27;20027;-74
2021/01/31 12:17:40;;;;;;;12.02;5.75;;;5.60;96.40;;;;;;5076298;27;20470;-74
2021/01/31 12:20:06;;;;;;;9.40;5.63;;;5.60;99.90;;;;;;5102867;27;20096;-73
2021/01/31 12:22:32;;;;;;;10.23;6.30;;;5.40;98.50;;;;;;5084504;28;20035;-73
2021/01/31 12:24:58;;;;;;;12.07;6.05;;;5.50;99.90;;;;;;5102356;28;20600;-73
2021/01/31 12:27:27;;;;;;;8.80;5.85;;;5.60;99.80;;;;;;5067651;28;20394;-74
2021/01/31 12:29:52;;;;;;;9.90;6.68;;;6.40;99.10;;;;;;5068298;28;20031;-74
2021/01/31 12:32:18;;;;;;;8.07;5.55;;;6.70;96.10;;;;;;5085897;28;20494;-74
2021/01/31 12:34:44;;;;;;;8.85;5.53;;;6.10;98.70;;;;;;5083972;28;20031;-74
2021/01/31 12:37:09;;;;;;;10.98;6.45;;;5.90;97.00;;;;;;5085229;28;20490;-74
2021/01/31 12:39:35;;;;;;;9.38;6.63;;;7.00;99.40;;;;;;5097440;28;20043;-74
2021/01/31 12:42:01;;;;;;;10.57;6.80;;;5.80;92.80;;;;;;5106239;28;20031;-74
2021/01/31 12:44:26;;;;;;;9.95;5.88;;;6.30;97.90;;;;;;5083523;28;20039;-74
2021/01/31 12:46:52;;;;;;;10.07;6.05;;;5.60;96.70;;;;;;5101736;28;20031;-74
2021/01/31 12:49:17;;;;;;;10.40;5.95;;;5.80;99.40;;;;;;5075230;28;20046;-74
2021/01/31 12:51:43;;;;;;;8.52;5.75;;;5.40;97.30;;;;;;5067049;28;20023;-74
2021/01/31 12:54:08;;;;;;;9.80;5.97;;;4.90;97.40;;;;;;5103893;28;20632;-75
2021/01/31 12:56:34;;;;;;;;;;;6.10;98.90;;;;;;4396609;28;10000588;-75
2021/01/31 12:58:59;;;;;;;10.17;6.63;;;7.30;96.20;;;;;;5102951;28;20457;-74
2021/01/31 13:01:25;;;;;;;8.55;5.85;;;7.10;93.00;;;;;;5096323;28;20058;-75
2021/01/31 13:03:51;;;;;;;9.20;5.72;;;7.10;97.00;;;;;;5102045;28;20063;-74